Artvin — 9HA2782 — position and weather

sailwx.info

Track history (hours):
 
Tides and Currents Weather Stations Pressure Air Temp Water Temp Dewpoint Dewpoint Depression Visibility Wind Speed Wind Dir Waves Ship Positions

Artvin

Last reported at 2014-Oct-26 12:33 UTC. Time now 2014-Nov-01 13:16 UTC.
Position N 57°58' W 006°19'.

Length 229 m; draft 11.7 m.

Type: Cargo ship. MMSI: 215678000.

Date/timePositionNaut miles runAvg speedWind from/ knotsBaromVisibWave heightAir tempDewpointWater temp
2014-Oct-26 12:33N 57°58' W 006°19'6 6.2
2014-Oct-26 11:33N 58°02' W 006°11'6 6.0
2014-Oct-26 10:33N 58°07' W 006°04'6 5.7
2014-Oct-26 09:33N 58°12' W 005°58'6 6.2
2014-Oct-26 08:33N 58°17' W 005°52'6 5.8
2014-Oct-26 07:33N 58°22' W 005°45'5 5.4
2014-Oct-26 06:33N 58°26' W 005°38'5 4.9
2014-Oct-26 05:33N 58°29' W 005°32'4 4.3
2014-Oct-26 04:33N 58°32' W 005°26'36 3.3
2014-Oct-25 17:28N 59°03' W 004°50'129 4.1
2014-Oct-24 10:15N 57°49' W 001°29'6 9.1
2014-Oct-24 09:33N 57°42' W 001°28'10 9.8
2014-Oct-24 08:33N 57°33' W 001°25'1313.0
2014-Oct-24 07:33N 57°20' W 001°24'12210.0
2014-Oct-23 19:25N 55°18' W 001°09'1910.2
2014-Oct-23 17:33N 54°59' W 001°07'11 9.5
2014-Oct-23 16:27N 54°48' W 001°06'9 9.7
2014-Oct-23 15:33N 54°40' W 001°08'4 3.4
2014-Oct-23 14:24N 54°36' W 001°09'0 0.0
2014-Oct-23 13:33N 54°36' W 001°09'0 0.0
2014-Oct-23 12:32N 54°36' W 001°09'0 0.0
2014-Oct-23 11:27N 54°36' W 001°09'0 0.0
2014-Oct-23 10:20N 54°36' W 001°09'0 0.0
2014-Oct-23 09:08N 54°36' W 001°09'0 0.0
2014-Oct-23 08:27N 54°36' W 001°09'0 0.0
2014-Oct-23 07:30N 54°36' W 001°09'0 0.0
2014-Oct-23 06:30N 54°36' W 001°09'0 0.0
2014-Oct-23 05:33N 54°36' W 001°09'0 0.0
2014-Oct-22 10:14N 54°36' W 001°09'0 0.0
2014-Oct-22 09:32N 54°36' W 001°09'0 0.0
2014-Oct-22 08:08N 54°36' W 001°09'0 0.0
2014-Oct-22 07:23N 54°36' W 001°09'0 0.0
2014-Oct-20 17:14N 54°36' W 001°09'0 0.0
2014-Oct-20 16:17N 54°36' W 001°09'0 0.0
2014-Oct-20 15:05N 54°36' W 001°09'0 0.0
2014-Oct-20 14:29N 54°36' W 001°09'0 0.0
2014-Oct-20 13:32N 54°36' W 001°09'0 0.0
2014-Oct-20 12:20N 54°36' W 001°09'0 0.0
2014-Oct-20 11:20N 54°36' W 001°09'0 0.0
2014-Oct-20 10:32N 54°36' W 001°09'0 0.0
2014-Oct-20 09:05N 54°36' W 001°09'0 0.0
2014-Oct-20 08:26N 54°36' W 001°09'0 0.0
2014-Oct-20 07:26N 54°36' W 001°09'0 0.0
2014-Oct-20 06:08N 54°36' W 001°09'0 0.0
2014-Oct-19 10:17N 54°36' W 001°09'0 0.0
2014-Oct-19 09:17N 54°36' W 001°09'0 0.0
2014-Oct-19 08:29N 54°36' W 001°09'0 0.0
2014-Oct-19 07:32N 54°36' W 001°09'0 0.0
2014-Oct-19 06:32N 54°36' W 001°09'0 0.0
2014-Oct-19 05:23N 54°36' W 001°09'0 0.0
2014-Oct-18 16:29N 54°36' W 001°09'0 0.0
2014-Oct-18 15:32N 54°36' W 001°09'0 0.0
2014-Oct-18 14:32N 54°36' W 001°09'0 0.0
2014-Oct-18 13:32N 54°36' W 001°09'0 0.0
2014-Oct-18 12:23N 54°36' W 001°09'0 0.0
2014-Oct-18 11:23N 54°36' W 001°09'0 0.0
2014-Oct-18 10:26N 54°36' W 001°09'0 0.0
2014-Oct-18 09:26N 54°36' W 001°09'0 0.0
2014-Oct-18 08:29N 54°36' W 001°09'0 0.0
2014-Oct-18 07:26N 54°36' W 001°09'0 0.0
2014-Oct-18 06:29N 54°36' W 001°09'0 0.0
2014-Oct-18 05:14N 54°36' W 001°09'0 0.0
2014-Oct-18 04:32N 54°36' W 001°09'0 0.0
2014-Oct-18 03:29N 54°36' W 001°09'0 0.0
2014-Oct-18 02:32N 54°36' W 001°09'0 0.0
2014-Oct-18 01:32N 54°36' W 001°09'0 0.0
2014-Oct-18 00:29N 54°36' W 001°09'0 0.0
2014-Oct-17 23:20N 54°36' W 001°09'0 0.0
2014-Oct-17 22:32N 54°36' W 001°09'0 0.0
2014-Oct-17 21:08N 54°36' W 001°09'0 0.0
2014-Oct-17 20:08N 54°36' W 001°09'0 0.0
2014-Oct-17 19:26N 54°36' W 001°09'0 0.0
2014-Oct-17 18:26N 54°36' W 001°09'0 0.0
2014-Oct-17 17:23N 54°36' W 001°09'0 0.0
2014-Oct-17 16:26N 54°36' W 001°09'0 0.0
2014-Oct-17 15:14N 54°36' W 001°09'0 0.0
2014-Oct-17 14:29N 54°36' W 001°09'0 0.0
2014-Oct-17 13:32N 54°36' W 001°09'0 0.0
2014-Oct-17 12:17N 54°36' W 001°09'3 0.7
2014-Oct-17 08:25N 54°39' W 001°09'4 4.9
2014-Oct-17 07:33N 54°43' W 001°06'3 3.4
2014-Oct-17 06:33N 54°42' W 000°60'7 7.5
2014-Oct-17 05:33N 54°39' W 000°48'1111.1
2014-Oct-17 04:34N 54°35' W 000°30'1111.3
2014-Oct-17 03:34N 54°31' W 000°12'1111.1
2014-Oct-17 02:34N 54°27' E 000°06'1110.8
2014-Oct-17 01:34N 54°23' E 000°23'1210.5
2014-Oct-17 00:26N 54°18' E 000°42'  
Track history (hours):
 
Tides and Currents Weather Stations Pressure Air Temp Water Temp Dewpoint Dewpoint Depression Visibility Wind Speed Wind Dir Waves Ship Positions

Artvin

Last reported at 2014-Oct-26 12:33 UTC. Time now 2014-Nov-01 13:16 UTC.
Position N 57°58' W 006°19'.

Length 229 m; draft 11.7 m.

Type: Cargo ship. MMSI: 215678000.

Date/timePositionNaut miles runAvg speedWind from/ knotsBaromVisibWave heightAir tempDewpointWater temp
2014-Oct-26 12:33N 57°58' W 006°19'6 6.2
2014-Oct-26 11:33N 58°02' W 006°11'6 6.0
2014-Oct-26 10:33N 58°07' W 006°04'6 5.7
2014-Oct-26 09:33N 58°12' W 005°58'6 6.2
2014-Oct-26 08:33N 58°17' W 005°52'6 5.8
2014-Oct-26 07:33N 58°22' W 005°45'5 5.4
2014-Oct-26 06:33N 58°26' W 005°38'5 4.9
2014-Oct-26 05:33N 58°29' W 005°32'4 4.3
2014-Oct-26 04:33N 58°32' W 005°26'36 3.3
2014-Oct-25 17:28N 59°03' W 004°50'129 4.1
2014-Oct-24 10:15N 57°49' W 001°29'6 9.1
2014-Oct-24 09:33N 57°42' W 001°28'10 9.8
2014-Oct-24 08:33N 57°33' W 001°25'1313.0
2014-Oct-24 07:33N 57°20' W 001°24'12210.0
2014-Oct-23 19:25N 55°18' W 001°09'1910.2
2014-Oct-23 17:33N 54°59' W 001°07'11 9.5
2014-Oct-23 16:27N 54°48' W 001°06'9 9.7
2014-Oct-23 15:33N 54°40' W 001°08'4 3.4
2014-Oct-23 14:24N 54°36' W 001°09'0 0.0
2014-Oct-23 13:33N 54°36' W 001°09'0 0.0
2014-Oct-23 12:32N 54°36' W 001°09'0 0.0
2014-Oct-23 11:27N 54°36' W 001°09'0 0.0
2014-Oct-23 10:20N 54°36' W 001°09'0 0.0
2014-Oct-23 09:08N 54°36' W 001°09'0 0.0
2014-Oct-23 08:27N 54°36' W 001°09'0 0.0
2014-Oct-23 07:30N 54°36' W 001°09'0 0.0
2014-Oct-23 06:30N 54°36' W 001°09'0 0.0
2014-Oct-23 05:33N 54°36' W 001°09'0 0.0
2014-Oct-22 10:14N 54°36' W 001°09'0 0.0
2014-Oct-22 09:32N 54°36' W 001°09'0 0.0
2014-Oct-22 08:08N 54°36' W 001°09'0 0.0
2014-Oct-22 07:23N 54°36' W 001°09'0 0.0
2014-Oct-20 17:14N 54°36' W 001°09'0 0.0
2014-Oct-20 16:17N 54°36' W 001°09'0 0.0
2014-Oct-20 15:05N 54°36' W 001°09'0 0.0
2014-Oct-20 14:29N 54°36' W 001°09'0 0.0
2014-Oct-20 13:32N 54°36' W 001°09'0 0.0
2014-Oct-20 12:20N 54°36' W 001°09'0 0.0
2014-Oct-20 11:20N 54°36' W 001°09'0 0.0
2014-Oct-20 10:32N 54°36' W 001°09'0 0.0
2014-Oct-20 09:05N 54°36' W 001°09'0 0.0
2014-Oct-20 08:26N 54°36' W 001°09'0 0.0
2014-Oct-20 07:26N 54°36' W 001°09'0 0.0
2014-Oct-20 06:08N 54°36' W 001°09'0 0.0
2014-Oct-19 10:17N 54°36' W 001°09'0 0.0
2014-Oct-19 09:17N 54°36' W 001°09'0 0.0
2014-Oct-19 08:29N 54°36' W 001°09'0 0.0
2014-Oct-19 07:32N 54°36' W 001°09'0 0.0
2014-Oct-19 06:32N 54°36' W 001°09'0 0.0
2014-Oct-19 05:23N 54°36' W 001°09'0 0.0
2014-Oct-18 16:29N 54°36' W 001°09'0 0.0
2014-Oct-18 15:32N 54°36' W 001°09'0 0.0
2014-Oct-18 14:32N 54°36' W 001°09'0 0.0
2014-Oct-18 13:32N 54°36' W 001°09'0 0.0
2014-Oct-18 12:23N 54°36' W 001°09'0 0.0
2014-Oct-18 11:23N 54°36' W 001°09'0 0.0
2014-Oct-18 10:26N 54°36' W 001°09'0 0.0
2014-Oct-18 09:26N 54°36' W 001°09'0 0.0
2014-Oct-18 08:29N 54°36' W 001°09'0 0.0
2014-Oct-18 07:26N 54°36' W 001°09'0 0.0
2014-Oct-18 06:29N 54°36' W 001°09'0 0.0
2014-Oct-18 05:14N 54°36' W 001°09'0 0.0
2014-Oct-18 04:32N 54°36' W 001°09'0 0.0
2014-Oct-18 03:29N 54°36' W 001°09'0 0.0
2014-Oct-18 02:32N 54°36' W 001°09'0 0.0
2014-Oct-18 01:32N 54°36' W 001°09'0 0.0
2014-Oct-18 00:29N 54°36' W 001°09'0 0.0
2014-Oct-17 23:20N 54°36' W 001°09'0 0.0
2014-Oct-17 22:32N 54°36' W 001°09'0 0.0
2014-Oct-17 21:08N 54°36' W 001°09'0 0.0
2014-Oct-17 20:08N 54°36' W 001°09'0 0.0
2014-Oct-17 19:26N 54°36' W 001°09'0 0.0
2014-Oct-17 18:26N 54°36' W 001°09'0 0.0
2014-Oct-17 17:23N 54°36' W 001°09'0 0.0
2014-Oct-17 16:26N 54°36' W 001°09'0 0.0
2014-Oct-17 15:14N 54°36' W 001°09'0 0.0
2014-Oct-17 14:29N 54°36' W 001°09'0 0.0
2014-Oct-17 13:32N 54°36' W 001°09'0 0.0
2014-Oct-17 12:17N 54°36' W 001°09'3 0.7
2014-Oct-17 08:25N 54°39' W 001°09'4 4.9
2014-Oct-17 07:33N 54°43' W 001°06'3 3.4
2014-Oct-17 06:33N 54°42' W 000°60'7 7.5
2014-Oct-17 05:33N 54°39' W 000°48'1111.1
2014-Oct-17 04:34N 54°35' W 000°30'1111.3
2014-Oct-17 03:34N 54°31' W 000°12'1111.1
2014-Oct-17 02:34N 54°27' E 000°06'1110.8
2014-Oct-17 01:34N 54°23' E 000°23'1210.5
2014-Oct-17 00:26N 54°18' E 000°42'  

Dump ship's entire track history